createdAt,value
2019-03-01T00:01:12.210Z,9.20
2019-03-01T00:03:40.667Z,7.27
2019-03-01T00:06:30.924Z,5.50
2019-03-01T00:09:37.215Z,7.40
2019-03-01T00:12:32.577Z,8.60
2019-03-01T00:15:24.833Z,5.77
2019-03-01T00:18:10.568Z,5.13
2019-03-01T00:21:01.671Z,8.50
2019-03-01T00:23:50.835Z,8.37
2019-03-01T00:26:28.269Z,10.33
2019-03-01T00:29:02.601Z,7.27
2019-03-01T00:31:37.422Z,4.70
2019-03-01T00:34:23.695Z,8.47
2019-03-01T00:37:07.336Z,7.57
2019-03-01T00:39:38.882Z,5.47
2019-03-01T00:42:31.550Z,6.20
2019-03-01T00:45:00.370Z,5.13
2019-03-01T00:47:28.749Z,8.00
2019-03-01T00:49:57.725Z,7.13
2019-03-01T00:52:26.209Z,10.07
2019-03-01T00:54:54.614Z,5.07
2019-03-01T00:57:23.026Z,9.70
2019-03-01T00:59:51.468Z,7.83
2019-03-01T01:02:19.909Z,7.63
2019-03-01T01:04:48.454Z,8.13
2019-03-01T01:07:16.941Z,6.30
2019-03-01T01:09:45.364Z,4.00
2019-03-01T01:12:13.832Z,5.80
2019-03-01T01:14:42.253Z,11.30
2019-03-01T01:17:10.679Z,4.60
2019-03-01T01:19:39.161Z,6.00
2019-03-01T01:22:07.570Z,3.27
2019-03-01T01:24:35.997Z,4.73
2019-03-01T01:27:04.397Z,3.83
2019-03-01T01:29:32.914Z,7.90
2019-03-01T01:32:01.326Z,5.03
2019-03-01T01:34:30.015Z,6.50
2019-03-01T01:36:58.462Z,7.80
2019-03-01T01:39:26.853Z,7.70
2019-03-01T01:41:55.307Z,8.43
2019-03-01T01:44:24.057Z,4.00
2019-03-01T01:46:52.505Z,6.97
2019-03-01T01:49:20.931Z,7.50
2019-03-01T01:51:50.916Z,6.53
2019-03-01T01:54:19.316Z,6.40
2019-03-01T01:56:47.750Z,4.00
2019-03-01T01:59:16.155Z,3.50
2019-03-01T02:01:44.638Z,5.80
2019-03-01T02:04:13.067Z,6.53
2019-03-01T02:06:41.477Z,3.40
2019-03-01T02:09:19.157Z,7.70
2019-03-01T02:11:47.545Z,3.60
2019-03-01T02:14:15.990Z,7.50
2019-03-01T02:16:44.402Z,4.53
2019-03-01T02:19:12.833Z,3.77
2019-03-01T02:21:41.237Z,4.87
2019-03-01T02:24:09.733Z,12.33
2019-03-01T02:26:38.182Z,5.90
2019-03-01T02:29:25.966Z,4.23
2019-03-01T02:31:55.145Z,7.67
2019-03-01T02:34:23.579Z,5.50
2019-03-01T02:36:52.010Z,3.00
2019-03-01T02:39:20.446Z,3.67
2019-03-01T02:41:48.889Z,2.90
2019-03-01T02:44:17.362Z,3.83
2019-03-01T02:46:45.782Z,4.37
2019-03-01T02:49:14.247Z,3.07
2019-03-01T02:51:42.649Z,6.00
2019-03-01T02:54:11.107Z,4.23
2019-03-01T02:56:39.543Z,6.33
2019-03-01T02:59:08.021Z,2.80
2019-03-01T03:01:36.445Z,4.40
2019-03-01T03:04:04.949Z,5.23
2019-03-01T03:06:40.779Z,3.93
2019-03-01T03:09:10.139Z,5.60
2019-03-01T03:11:38.551Z,4.90
2019-03-01T03:14:07.021Z,4.33
2019-03-01T03:16:35.422Z,5.90
2019-03-01T03:19:03.879Z,4.72
2019-03-01T03:21:32.281Z,4.17
2019-03-01T03:24:01.033Z,4.13
2019-03-01T03:26:29.566Z,4.80
2019-03-01T03:28:58.030Z,5.30
2019-03-01T03:31:26.429Z,5.43
2019-03-01T03:33:54.890Z,3.70
2019-03-01T03:36:23.286Z,4.03
2019-03-01T03:38:51.728Z,4.50
2019-03-01T03:41:20.141Z,5.20
2019-03-01T03:43:48.619Z,3.27
2019-03-01T03:46:17.019Z,4.55
2019-03-01T03:48:45.550Z,2.90
2019-03-01T03:51:13.958Z,6.23
2019-03-01T03:53:42.445Z,4.30
2019-03-01T03:56:10.916Z,3.40
2019-03-01T03:58:39.364Z,7.70
2019-03-01T04:01:07.836Z,7.80
2019-03-01T04:03:36.338Z,4.10
2019-03-01T04:06:05.013Z,3.80
2019-03-01T04:08:34.217Z,6.00
2019-03-01T04:11:02.637Z,6.27
2019-03-01T04:13:31.078Z,5.20
2019-03-01T04:15:59.551Z,7.03
2019-03-01T04:18:27.984Z,4.17
2019-03-01T04:20:56.429Z,5.23
2019-03-01T04:23:24.854Z,5.07
2019-03-01T04:25:53.301Z,4.40
2019-03-01T04:28:21.797Z,4.97
2019-03-01T04:30:50.562Z,8.53
2019-03-01T04:33:18.996Z,5.30
2019-03-01T04:35:47.433Z,4.22
2019-03-01T04:38:15.834Z,5.47
2019-03-01T04:40:44.294Z,3.57
2019-03-01T04:43:12.735Z,6.10
2019-03-01T04:45:41.442Z,9.27
2019-03-01T04:48:09.855Z,9.43
2019-03-01T04:50:38.268Z,7.10
2019-03-01T04:53:06.774Z,4.67
2019-03-01T04:55:35.185Z,8.43
2019-03-01T04:58:03.604Z,5.80
2019-03-01T05:00:32.055Z,3.70
2019-03-01T05:03:00.532Z,4.43
2019-03-01T05:05:29.382Z,5.40
2019-03-01T05:07:57.803Z,5.80
2019-03-01T05:10:26.301Z,8.67
2019-03-01T05:12:54.747Z,6.37
2019-03-01T05:15:25.987Z,4.40
2019-03-01T05:17:54.379Z,8.77
2019-03-01T05:20:22.855Z,5.27
2019-03-01T05:22:51.273Z,5.90
2019-03-01T05:25:19.717Z,6.40
2019-03-01T05:27:48.131Z,8.55
2019-03-01T05:30:17.573Z,7.27
2019-03-01T05:32:45.975Z,6.77
2019-03-01T05:35:14.530Z,6.73
2019-03-01T05:37:43.000Z,7.20
2019-03-01T05:40:15.578Z,7.90
2019-03-01T05:42:44.134Z,4.53
2019-03-01T05:45:27.236Z,6.10
2019-03-01T05:47:55.628Z,6.20
2019-03-01T05:50:24.053Z,6.97
2019-03-01T05:52:52.455Z,7.10
2019-03-01T05:55:20.869Z,5.60
2019-03-01T05:58:21.434Z,6.33
2019-03-01T06:00:51.450Z,4.15
2019-03-01T06:03:31.391Z,5.95
2019-03-01T06:06:00.166Z,5.60
2019-03-01T06:08:54.219Z,7.27
2019-03-01T06:11:28.836Z,6.65
2019-03-01T06:14:18.482Z,6.03
2019-03-01T06:16:58.493Z,6.42
2019-03-01T06:19:29.997Z,4.53
2019-03-01T06:22:07.330Z,8.07
2019-03-01T06:24:56.778Z,6.93
2019-03-01T06:27:46.411Z,3.92
2019-03-01T06:30:34.291Z,5.12
2019-03-01T06:33:31.488Z,5.20
2019-03-01T06:36:03.006Z,4.87
2019-03-01T06:38:41.852Z,3.33
2019-03-01T06:41:20.364Z,5.37
2019-03-01T06:44:09.651Z,2.57
2019-03-01T06:46:54.889Z,4.63
2019-03-01T06:49:24.957Z,5.03
2019-03-01T06:51:53.373Z,5.10
2019-03-01T06:54:21.788Z,4.10
2019-03-01T06:56:50.228Z,6.07
2019-03-01T06:59:18.662Z,3.13
2019-03-01T07:01:47.741Z,2.43
2019-03-01T07:04:16.937Z,2.45
2019-03-01T07:06:45.385Z,3.12
2019-03-01T07:09:13.811Z,2.52
2019-03-01T07:11:42.232Z,5.42
2019-03-01T07:14:10.649Z,2.80
2019-03-01T07:16:39.065Z,2.12
2019-03-01T07:19:07.545Z,2.05
2019-03-01T07:21:36.199Z,2.67
2019-03-01T07:24:04.694Z,2.50
2019-03-01T07:26:33.170Z,2.70
2019-03-01T07:29:01.610Z,3.42
2019-03-01T07:31:30.091Z,2.17
2019-03-01T07:33:58.495Z,2.47
2019-03-01T07:36:26.913Z,2.20
2019-03-01T07:38:55.374Z,2.25
2019-03-01T07:41:23.793Z,2.65
2019-03-01T07:43:52.207Z,1.55
2019-03-01T07:46:20.673Z,3.35
2019-03-01T07:48:49.126Z,2.65
2019-03-01T07:51:17.528Z,2.12
2019-03-01T07:53:46.245Z,3.72
2019-03-01T07:56:14.659Z,1.55
2019-03-01T07:58:43.100Z,1.60
2019-03-01T08:01:11.526Z,2.47
2019-03-01T08:03:40.041Z,4.03
2019-03-01T08:06:13.130Z,2.60
2019-03-01T08:08:39.966Z,1.70
2019-03-01T08:11:08.506Z,2.17
2019-03-01T08:13:36.966Z,4.40
2019-03-01T08:16:05.380Z,4.30
2019-03-01T08:18:33.783Z,1.80
2019-03-01T08:21:02.625Z,2.60
2019-03-01T08:23:31.780Z,3.10
2019-03-01T08:26:03.353Z,2.80
2019-03-01T08:28:31.526Z,5.00
2019-03-01T08:30:59.917Z,1.87
2019-03-01T08:33:28.350Z,1.65
2019-03-01T08:35:56.758Z,2.35
2019-03-01T08:38:25.508Z,1.47
2019-03-01T08:40:55.442Z,2.92
2019-03-01T08:43:23.873Z,2.22
2019-03-01T08:45:52.287Z,2.12
2019-03-01T08:48:21.048Z,1.50
2019-03-01T08:50:49.446Z,2.00
2019-03-01T08:53:17.870Z,1.22
2019-03-01T08:55:46.267Z,1.53
2019-03-01T08:58:14.708Z,3.20
2019-03-01T09:00:45.571Z,4.47
2019-03-01T09:03:32.141Z,4.10
2019-03-01T09:06:00.556Z,2.45
2019-03-01T09:08:29.294Z,2.22
2019-03-01T09:10:57.756Z,3.27
2019-03-01T09:13:26.442Z,1.72
2019-03-01T09:15:54.921Z,1.60
2019-03-01T09:18:23.561Z,2.80
2019-03-01T09:20:52.014Z,2.65
2019-03-01T09:23:25.307Z,2.72
2019-03-01T09:25:50.617Z,2.23
2019-03-01T09:28:19.038Z,3.10
2019-03-01T09:30:47.450Z,1.93
2019-03-01T09:33:17.287Z,3.47
2019-03-01T09:35:49.893Z,2.13
2019-03-01T09:38:18.201Z,3.80
2019-03-01T09:40:46.901Z,6.00
2019-03-01T09:43:15.385Z,3.13
2019-03-01T09:45:45.766Z,1.83
2019-03-01T09:48:13.972Z,2.63
2019-03-01T09:50:42.405Z,3.00
2019-03-01T09:53:10.833Z,1.57
2019-03-01T09:55:39.271Z,1.67
2019-03-01T09:58:08.440Z,1.50
2019-03-01T10:00:55.605Z,3.20
2019-03-01T10:03:16.666Z,2.83
2019-03-01T10:05:45.070Z,1.70
2019-03-01T10:08:13.933Z,2.77
2019-03-01T10:10:42.354Z,2.67
2019-03-01T10:13:10.804Z,4.90
2019-03-01T10:15:39.289Z,1.70
2019-03-01T10:18:07.690Z,2.93
2019-03-01T10:20:36.138Z,3.13
2019-03-01T10:23:04.577Z,2.57
2019-03-01T10:25:32.973Z,6.67
2019-03-01T10:28:01.401Z,4.00
2019-03-01T10:30:29.949Z,2.27
2019-03-01T10:32:58.643Z,3.07
2019-03-01T10:35:27.054Z,2.60
2019-03-01T10:37:55.490Z,3.93
2019-03-01T10:40:26.073Z,2.13
2019-03-01T10:42:54.475Z,1.70
2019-03-01T10:45:24.525Z,2.37
2019-03-01T10:47:53.022Z,2.30
2019-03-01T10:50:21.429Z,1.40
2019-03-01T10:52:50.215Z,1.90
2019-03-01T10:55:19.574Z,2.00
2019-03-01T10:57:48.692Z,2.10
2019-03-01T11:00:25.624Z,2.13
2019-03-01T11:02:54.866Z,1.47
2019-03-01T11:05:24.037Z,6.70
2019-03-01T11:07:53.985Z,1.50
2019-03-01T11:10:27.885Z,2.57
2019-03-01T11:12:56.312Z,2.53
2019-03-01T11:15:24.746Z,4.40
2019-03-01T11:17:53.177Z,3.60
2019-03-01T11:20:22.089Z,3.03
2019-03-01T11:22:50.618Z,2.23
2019-03-01T11:25:27.951Z,2.30
2019-03-01T11:27:56.625Z,2.10
2019-03-01T11:30:32.968Z,3.33
2019-03-01T11:33:01.391Z,1.77
2019-03-01T11:35:31.654Z,2.10
2019-03-01T11:38:00.235Z,1.50
2019-03-01T11:40:39.301Z,1.40
2019-03-01T11:43:07.725Z,1.70
2019-03-01T11:45:36.373Z,1.03
2019-03-01T11:48:06.143Z,0.70
2019-03-01T11:50:34.557Z,1.00
2019-03-01T11:53:03.070Z,1.40
2019-03-01T11:55:31.525Z,2.30
2019-03-01T11:58:00.001Z,1.43
2019-03-01T12:00:29.465Z,1.40
2019-03-01T12:02:57.859Z,1.57
2019-03-01T12:05:26.325Z,1.07
2019-03-01T12:07:54.826Z,1.40
2019-03-01T12:10:27.709Z,1.37
2019-03-01T12:12:56.197Z,1.63
2019-03-01T12:15:24.784Z,1.00
2019-03-01T12:17:53.258Z,1.27
2019-03-01T12:20:29.984Z,1.67
2019-03-01T12:22:58.456Z,1.10
2019-03-01T12:25:26.881Z,1.40
2019-03-01T12:27:55.319Z,1.50
2019-03-01T12:30:28.105Z,2.50
2019-03-01T12:32:56.538Z,1.53
2019-03-01T12:35:24.952Z,1.33
2019-03-01T12:37:53.461Z,1.50
2019-03-01T12:40:26.082Z,1.73
2019-03-01T12:42:54.935Z,2.07
2019-03-01T12:45:23.445Z,1.70
2019-03-01T12:47:51.900Z,2.57
2019-03-01T12:50:20.657Z,1.63
2019-03-01T12:52:49.619Z,2.67
2019-03-01T12:55:21.113Z,1.77
2019-03-01T12:57:49.546Z,1.73
2019-03-01T13:00:23.550Z,4.10
2019-03-01T13:02:51.955Z,3.30
2019-03-01T13:05:20.381Z,3.03
2019-03-01T13:07:49.151Z,2.43
2019-03-01T13:10:40.179Z,5.70
2019-03-01T13:13:08.546Z,2.08
2019-03-01T13:15:56.573Z,3.37
2019-03-01T13:18:25.002Z,4.30
2019-03-01T13:20:53.404Z,3.17
2019-03-01T13:23:21.862Z,3.47
2019-03-01T13:25:50.290Z,4.93
2019-03-01T13:28:18.710Z,6.20
2019-03-01T13:30:47.124Z,6.50
2019-03-01T13:33:16.554Z,8.27
2019-03-01T13:35:45.141Z,1.80
2019-03-01T13:38:13.547Z,1.80
2019-03-01T13:40:42.387Z,1.57
2019-03-01T13:43:11.342Z,1.50
2019-03-01T13:45:39.833Z,1.47
2019-03-01T13:48:08.301Z,1.83
2019-03-01T13:50:38.317Z,1.63
2019-03-01T13:53:06.894Z,3.37
2019-03-01T13:55:35.673Z,1.90
2019-03-01T13:58:04.202Z,1.70
2019-03-01T14:00:32.709Z,1.67
2019-03-01T14:03:01.186Z,2.80
2019-03-01T14:05:31.116Z,1.80
2019-03-01T14:08:08.364Z,1.63
2019-03-01T14:10:30.616Z,1.93
2019-03-01T14:12:59.047Z,2.07
2019-03-01T14:15:27.531Z,2.10
2019-03-01T14:18:00.814Z,1.50
2019-03-01T14:20:26.086Z,2.43
2019-03-01T14:22:54.482Z,5.40
2019-03-01T14:25:22.924Z,2.17
2019-03-01T14:27:52.981Z,2.83
2019-03-01T14:30:29.160Z,2.27
2019-03-01T14:32:57.488Z,1.97
2019-03-01T14:35:27.171Z,2.07
2019-03-01T14:37:55.852Z,3.87
2019-03-01T14:40:24.521Z,2.20
2019-03-01T14:42:53.204Z,2.13
2019-03-01T14:45:29.805Z,1.97
2019-03-01T14:48:08.868Z,1.63
2019-03-01T14:50:37.033Z,2.83
2019-03-01T14:53:05.799Z,1.53
2019-03-01T14:55:55.532Z,1.60
2019-03-01T14:58:25.673Z,1.80
2019-03-01T15:01:00.122Z,2.00
2019-03-01T15:03:30.680Z,1.90
2019-03-01T15:05:59.381Z,7.17
2019-03-01T15:08:28.188Z,2.73
2019-03-01T15:10:58.207Z,2.10
2019-03-01T15:13:27.866Z,3.20
2019-03-01T15:16:00.994Z,2.20
2019-03-01T15:18:28.897Z,1.50
2019-03-01T15:21:02.417Z,1.82
2019-03-01T15:23:28.750Z,1.80
2019-03-01T15:25:57.176Z,2.60
2019-03-01T15:28:25.691Z,2.70
2019-03-01T15:30:54.149Z,1.70
2019-03-01T15:33:22.689Z,2.10
2019-03-01T15:35:51.099Z,1.70
2019-03-01T15:38:19.651Z,2.30
2019-03-01T15:40:48.126Z,2.20
2019-03-01T15:43:16.542Z,3.52
2019-03-01T15:45:45.023Z,2.93
2019-03-01T15:48:13.446Z,3.27
2019-03-01T15:50:41.887Z,3.17
2019-03-01T15:53:10.752Z,4.10
2019-03-01T15:55:39.262Z,4.15
2019-03-01T15:58:07.689Z,3.40
2019-03-01T16:00:36.149Z,2.00
2019-03-01T16:03:05.153Z,2.40
2019-03-01T16:05:34.172Z,4.53
2019-03-01T16:08:05.445Z,2.50
2019-03-01T16:10:36.168Z,3.30
2019-03-01T16:13:04.127Z,2.50
2019-03-01T16:15:34.838Z,3.20
2019-03-01T16:18:02.757Z,3.13
2019-03-01T16:20:31.439Z,5.13
2019-03-01T16:22:59.865Z,6.70
2019-03-01T16:25:28.293Z,4.00
2019-03-01T16:27:56.854Z,3.70
2019-03-01T16:30:25.255Z,2.60
2019-03-01T16:32:53.666Z,3.83
2019-03-01T16:35:22.089Z,3.62
2019-03-01T16:37:52.168Z,6.03
2019-03-01T16:40:20.663Z,4.50
2019-03-01T16:42:52.960Z,3.27
2019-03-01T16:45:21.012Z,4.67
2019-03-01T16:47:49.461Z,5.50
2019-03-01T16:50:19.405Z,3.30
2019-03-01T16:52:47.901Z,3.47
2019-03-01T16:55:24.355Z,3.60
2019-03-01T16:57:52.268Z,5.65
2019-03-01T17:00:23.240Z,4.57
2019-03-01T17:03:04.023Z,3.60
2019-03-01T17:05:35.815Z,3.80
2019-03-01T17:08:05.735Z,4.50
2019-03-01T17:10:33.036Z,5.10
2019-03-01T17:13:01.802Z,4.60
2019-03-01T17:15:30.546Z,4.95
2019-03-01T17:17:59.042Z,4.33
2019-03-01T17:20:27.572Z,5.10
2019-03-01T17:22:56.046Z,4.22
2019-03-01T17:25:26.893Z,6.00
2019-03-01T17:27:54.745Z,4.30
2019-03-01T17:30:24.414Z,5.20
2019-03-01T17:32:52.873Z,5.37
2019-03-01T17:35:21.355Z,4.17
2019-03-01T17:37:49.912Z,6.63
2019-03-01T17:40:18.784Z,8.33
2019-03-01T17:42:47.357Z,10.25
2019-03-01T17:45:23.985Z,5.28
2019-03-01T17:47:52.566Z,5.87
2019-03-01T17:50:21.162Z,8.68
2019-03-01T17:52:49.561Z,4.77
2019-03-01T17:55:24.422Z,5.53
2019-03-01T17:57:53.320Z,7.05
2019-03-01T18:00:35.986Z,7.50
2019-03-01T18:03:05.819Z,5.08
2019-03-01T18:05:36.929Z,4.15
2019-03-01T18:08:04.943Z,5.37
2019-03-01T18:10:33.654Z,9.18
2019-03-01T18:13:02.058Z,6.08
2019-03-01T18:15:30.475Z,5.95
2019-03-01T18:17:59.091Z,5.35
2019-03-01T18:20:27.520Z,7.65
2019-03-01T18:22:55.914Z,6.00
2019-03-01T18:25:26.333Z,5.30
2019-03-01T18:27:54.544Z,4.95
2019-03-01T18:30:29.929Z,6.65
2019-03-01T18:32:58.406Z,7.22
2019-03-01T18:35:26.833Z,7.72
2019-03-01T18:37:56.073Z,6.53
2019-03-01T18:40:25.003Z,5.92
2019-03-01T18:42:53.461Z,5.50
2019-03-01T18:45:23.341Z,6.67
2019-03-01T18:47:51.868Z,5.85
2019-03-01T18:50:27.744Z,5.95
2019-03-01T18:52:56.145Z,5.25
2019-03-01T18:55:25.009Z,6.62
2019-03-01T18:57:53.452Z,5.70
2019-03-01T19:00:28.975Z,6.42
2019-03-01T19:02:57.641Z,5.65
2019-03-01T19:05:26.129Z,6.60
2019-03-01T19:07:54.616Z,5.40
2019-03-01T19:10:27.581Z,9.40
2019-03-01T19:12:55.044Z,8.68
2019-03-01T19:15:23.605Z,12.78
2019-03-01T19:17:52.097Z,12.80
2019-03-01T19:20:26.227Z,14.25
2019-03-01T19:22:54.670Z,10.95
2019-03-01T19:25:25.479Z,9.10
2019-03-01T19:27:53.403Z,6.78
2019-03-01T19:30:23.503Z,8.90
2019-03-01T19:32:52.066Z,7.62
2019-03-01T19:35:21.006Z,7.80
2019-03-01T19:37:50.764Z,8.10
2019-03-01T19:40:23.935Z,10.30
2019-03-01T19:42:52.361Z,11.78
2019-03-01T19:45:20.946Z,9.10
2019-03-01T19:47:49.413Z,11.40
2019-03-01T19:50:26.178Z,10.78
2019-03-01T19:52:54.661Z,10.20
2019-03-01T19:55:23.208Z,10.95
2019-03-01T19:57:53.133Z,9.75
2019-03-01T20:00:34.081Z,11.00
2019-03-01T20:03:02.489Z,7.85
2019-03-01T20:05:33.170Z,7.50
2019-03-01T20:08:01.798Z,9.08
2019-03-01T20:10:31.848Z,8.33
2019-03-01T20:13:00.272Z,7.28
2019-03-01T20:15:29.527Z,8.28
2019-03-01T20:17:58.105Z,8.75
2019-03-01T20:20:33.346Z,8.28
2019-03-01T20:23:00.101Z,8.98
2019-03-01T20:25:28.549Z,11.60
2019-03-01T20:27:56.945Z,7.92
2019-03-01T20:30:32.898Z,10.98
2019-03-01T20:33:01.343Z,10.85
2019-03-01T20:35:29.756Z,14.95
2019-03-01T20:38:00.299Z,13.20
2019-03-01T20:40:28.546Z,11.40
2019-03-01T20:43:00.476Z,13.93
2019-03-01T20:45:31.566Z,13.30
2019-03-01T20:48:00.337Z,16.20
2019-03-01T20:50:28.761Z,14.30
2019-03-01T20:52:57.287Z,14.80
2019-03-01T20:55:25.937Z,16.42
2019-03-01T20:57:54.433Z,14.95
2019-03-01T21:00:27.351Z,13.10
2019-03-01T21:02:57.048Z,16.40
2019-03-01T21:05:29.009Z,16.48
2019-03-01T21:07:56.132Z,13.22
2019-03-01T21:10:29.355Z,15.28
2019-03-01T21:12:57.809Z,12.73
2019-03-01T21:15:26.270Z,17.55
2019-03-01T21:17:57.008Z,17.87
2019-03-01T21:20:25.223Z,17.80
2019-03-01T21:22:54.179Z,15.93
2019-03-01T21:25:23.836Z,19.67
2019-03-01T21:27:52.327Z,16.97
2019-03-01T21:30:25.810Z,13.25
2019-03-01T21:32:54.716Z,18.45
2019-03-01T21:35:23.241Z,16.48
2019-03-01T21:37:52.889Z,16.80
2019-03-01T21:40:21.354Z,14.85
2019-03-01T21:42:52.792Z,14.53
2019-03-01T21:45:23.353Z,16.25
2019-03-01T21:47:52.000Z,15.00
2019-03-01T21:50:20.631Z,16.90
2019-03-01T21:52:49.099Z,17.30
2019-03-01T21:55:19.961Z,19.10
2019-03-01T21:57:48.465Z,18.73
2019-03-01T22:00:19.994Z,15.23
2019-03-01T22:02:48.840Z,17.02
2019-03-01T22:05:19.472Z,15.40
2019-03-01T22:07:48.078Z,18.80
2019-03-01T22:10:16.589Z,14.43
2019-03-01T22:12:45.055Z,19.30
2019-03-01T22:15:25.479Z,16.82
2019-03-01T22:17:54.821Z,15.78
2019-03-01T22:20:23.934Z,19.40
2019-03-01T22:22:52.372Z,16.50
2019-03-01T22:25:20.885Z,17.45
2019-03-01T22:27:49.453Z,18.67
2019-03-01T22:30:31.618Z,14.50
2019-03-01T22:33:00.034Z,17.02
2019-03-01T22:35:28.452Z,20.20
2019-03-01T22:37:56.907Z,14.63
2019-03-01T22:40:27.955Z,20.85
2019-03-01T22:42:55.541Z,14.90
2019-03-01T22:45:23.969Z,15.70
2019-03-01T22:47:52.417Z,17.45
2019-03-01T22:50:21.279Z,20.17
2019-03-01T22:52:49.786Z,22.73
2019-03-01T22:55:19.137Z,16.87
2019-03-01T22:57:47.559Z,16.45
2019-03-01T23:00:48.966Z,16.50
2019-03-01T23:03:19.190Z,18.55
2019-03-01T23:05:48.615Z,18.07
2019-03-01T23:08:17.624Z,19.30
2019-03-01T23:10:46.078Z,19.37
2019-03-01T23:13:17.123Z,20.35
2019-03-01T23:15:44.735Z,19.25
2019-03-01T23:18:13.595Z,20.48
2019-03-01T23:20:42.310Z,22.40
2019-03-01T23:23:11.053Z,16.50
2019-03-01T23:25:42.836Z,16.05
2019-03-01T23:28:10.131Z,20.17
2019-03-01T23:30:38.623Z,16.17
2019-03-01T23:33:07.087Z,21.45
2019-03-01T23:35:35.517Z,21.52
2019-03-01T23:38:04.018Z,18.37
2019-03-01T23:40:32.690Z,18.75
2019-03-01T23:43:04.664Z,23.60
2019-03-01T23:45:33.093Z,21.85
2019-03-01T23:48:01.505Z,23.40
2019-03-01T23:50:31.480Z,25.10
2019-03-01T23:53:00.166Z,18.55
2019-03-01T23:55:28.634Z,24.10
2019-03-01T23:58:05.737Z,21.65
